sensor_id;sensor_type;location;lat;lon;timestamp;pressure;altitude;pressure_sealevel;temperature;humidity
71956;BME280;59829;50.562;6.258;2024-03-02T00:06:34;94136.72;;;10.51;81.04
71956;BME280;59829;50.562;6.258;2024-03-02T00:16:34;94135.09;;;10.50;81.23
71956;BME280;59829;50.562;6.258;2024-03-02T00:26:37;94129.03;;;10.51;81.33
71956;BME280;59829;50.562;6.258;2024-03-02T00:36:37;94130.00;;;10.50;81.45
71956;BME280;59829;50.562;6.258;2024-03-02T00:46:42;94135.09;;;10.50;81.42
71956;BME280;59829;50.562;6.258;2024-03-02T00:56:43;94138.63;;;10.49;81.59
71956;BME280;59829;50.562;6.258;2024-03-02T01:06:44;94146.16;;;10.51;81.78
71956;BME280;59829;50.562;6.258;2024-03-02T01:16:44;94140.22;;;10.50;81.81
71956;BME280;59829;50.562;6.258;2024-03-02T01:26:45;94159.13;;;10.49;81.92
71956;BME280;59829;50.562;6.258;2024-03-02T01:36:45;94152.41;;;10.48;82.02
71956;BME280;59829;50.562;6.258;2024-03-02T01:46:45;94141.19;;;10.49;82.11
71956;BME280;59829;50.562;6.258;2024-03-02T01:56:46;94144.88;;;10.47;82.17
71956;BME280;59829;50.562;6.258;2024-03-02T02:06:46;94146.31;;;10.49;82.29
71956;BME280;59829;50.562;6.258;2024-03-02T02:16:46;94147.28;;;10.48;82.37
71956;BME280;59829;50.562;6.258;2024-03-02T02:26:47;94152.41;;;10.48;82.76
71956;BME280;59829;50.562;6.258;2024-03-02T02:36:47;94148.25;;;10.47;82.79
71956;BME280;59829;50.562;6.258;2024-03-02T02:46:47;94150.78;;;10.47;82.74
71956;BME280;59829;50.562;6.258;2024-03-02T02:56:48;94153.34;;;10.47;83.02
71956;BME280;59829;50.562;6.258;2024-03-02T03:06:48;94144.88;;;10.47;83.36
71956;BME280;59829;50.562;6.258;2024-03-02T03:16:48;94142.47;;;10.45;83.15
71956;BME280;59829;50.562;6.258;2024-03-02T03:26:50;94149.19;;;10.46;83.45
71956;BME280;59829;50.562;6.258;2024-03-02T03:36:50;94153.53;;;10.46;83.56
71956;BME280;59829;50.562;6.258;2024-03-02T03:46:51;94136.56;;;10.45;83.48
71956;BME280;59829;50.562;6.258;2024-03-02T03:56:51;94130.66;;;10.44;83.57
71956;BME280;59829;50.562;6.258;2024-03-02T04:06:51;94131.44;;;10.45;83.63
71956;BME280;59829;50.562;6.258;2024-03-02T04:16:52;94141.69;;;10.45;83.76
71956;BME280;59829;50.562;6.258;2024-03-02T04:26:52;94151.13;;;10.44;83.66
71956;BME280;59829;50.562;6.258;2024-03-02T04:36:52;94142.47;;;10.45;83.92
71956;BME280;59829;50.562;6.258;2024-03-02T04:46:53;94151.13;;;10.44;84.00
71956;BME280;59829;50.562;6.258;2024-03-02T04:56:53;94150.16;;;10.45;83.96
71956;BME280;59829;50.562;6.258;2024-03-02T05:06:53;94159.59;;;10.45;84.08
71956;BME280;59829;50.562;6.258;2024-03-02T05:16:56;94156.25;;;10.44;83.97
71956;BME280;59829;50.562;6.258;2024-03-02T05:26:56;94162.31;;;10.43;83.89
71956;BME280;59829;50.562;6.258;2024-03-02T05:36:56;94171.59;;;10.44;84.22
71956;BME280;59829;50.562;6.258;2024-03-02T05:46:58;94180.25;;;10.43;84.23
71956;BME280;59829;50.562;6.258;2024-03-02T05:56:58;94182.97;;;10.42;84.28
71956;BME280;59829;50.562;6.258;2024-03-02T06:07:16;94193.22;;;10.42;84.23
71956;BME280;59829;50.562;6.258;2024-03-02T06:17:16;94197.53;;;10.41;84.26
71956;BME280;59829;50.562;6.258;2024-03-02T06:27:17;94192.41;;;10.41;84.37
71956;BME280;59829;50.562;6.258;2024-03-02T06:37:17;94207.78;;;10.41;84.36
71956;BME280;59829;50.562;6.258;2024-03-02T06:47:17;94211.25;;;10.40;84.34
71956;BME280;59829;50.562;6.258;2024-03-02T06:57:20;94226.63;;;10.40;84.67
71956;BME280;59829;50.562;6.258;2024-03-02T07:07:21;94226.63;;;10.40;84.33
71956;BME280;59829;50.562;6.258;2024-03-02T07:17:21;94258.13;;;10.41;84.55
71956;BME280;59829;50.562;6.258;2024-03-02T07:27:21;94261.53;;;10.41;84.34
71956;BME280;59829;50.562;6.258;2024-03-02T07:37:23;94263.25;;;10.41;84.36
71956;BME280;59829;50.562;6.258;2024-03-02T07:47:23;94262.31;;;10.42;84.29
71956;BME280;59829;50.562;6.258;2024-03-02T07:57:24;94258.00;;;10.42;84.29
71956;BME280;59829;50.562;6.258;2024-03-02T08:07:25;94263.13;;;10.42;84.47
71956;BME280;59829;50.562;6.258;2024-03-02T08:17:25;94265.53;;;10.44;84.40
71956;BME280;59829;50.562;6.258;2024-03-02T08:27:25;94277.38;;;10.45;84.27
71956;BME280;59829;50.562;6.258;2024-03-02T08:37:26;94282.31;;;10.46;84.31
71956;BME280;59829;50.562;6.258;2024-03-02T08:47:27;94283.91;;;10.47;84.33
71956;BME280;59829;50.562;6.258;2024-03-02T08:57:27;94265.84;;;10.49;84.30
71956;BME280;59829;50.562;6.258;2024-03-02T09:07:28;94285.19;;;10.51;84.02
71956;BME280;59829;50.562;6.258;2024-03-02T09:17:29;94291.91;;;10.52;84.04
71956;BME280;59829;50.562;6.258;2024-03-02T09:27:29;94288.41;;;10.53;83.89
71956;BME280;59829;50.562;6.258;2024-03-02T09:37:29;94289.03;;;10.55;83.81
71956;BME280;59829;50.562;6.258;2024-03-02T09:47:30;94298.31;;;10.56;83.85
71956;BME280;59829;50.562;6.258;2024-03-02T09:57:30;94281.03;;;10.58;83.71
71956;BME280;59829;50.562;6.258;2024-03-02T10:07:30;94274.97;;;10.60;83.66
71956;BME280;59829;50.562;6.258;2024-03-02T10:17:31;94272.09;;;10.63;83.55
71956;BME280;59829;50.562;6.258;2024-03-02T10:27:34;94259.94;;;10.65;83.53
71956;BME280;59829;50.562;6.258;2024-03-02T10:37:34;94261.53;;;10.66;83.12
71956;BME280;59829;50.562;6.258;2024-03-02T10:47:36;94252.72;;;10.68;82.99
71956;BME280;59829;50.562;6.258;2024-03-02T10:57:53;94243.09;;;10.70;83.08
71956;BME280;59829;50.562;6.258;2024-03-02T11:08:01;94240.38;;;10.72;82.90
71956;BME280;59829;50.562;6.258;2024-03-02T11:18:06;94232.69;;;10.72;82.69
71956;BME280;59829;50.562;6.258;2024-03-02T11:28:08;94226.28;;;10.76;82.55
71956;BME280;59829;50.562;6.258;2024-03-02T11:38:11;94193.94;;;10.75;82.40
71956;BME280;59829;50.562;6.258;2024-03-02T11:48:15;94188.53;;;10.78;82.52
71956;BME280;59829;50.562;6.258;2024-03-02T11:58:16;94194.28;;;10.80;82.32
71956;BME280;59829;50.562;6.258;2024-03-02T12:08:26;94196.06;;;10.79;82.39
71956;BME280;59829;50.562;6.258;2024-03-02T12:18:27;94174.75;;;10.79;82.20
71956;BME280;59829;50.562;6.258;2024-03-02T12:28:28;94177.31;;;10.79;82.20
71956;BME280;59829;50.562;6.258;2024-03-02T12:38:28;94171.25;;;10.80;82.08
71956;BME280;59829;50.562;6.258;2024-03-02T12:48:29;94166.91;;;10.80;81.98
71956;BME280;59829;50.562;6.258;2024-03-02T12:58:30;94163.38;;;10.81;82.04
71956;BME280;59829;50.562;6.258;2024-03-02T13:08:31;94159.06;;;10.82;82.13
71956;BME280;59829;50.562;6.258;2024-03-02T13:18:33;94159.06;;;10.82;82.09
71956;BME280;59829;50.562;6.258;2024-03-02T13:28:33;94136.00;;;10.82;82.20
71956;BME280;59829;50.562;6.258;2024-03-02T13:38:34;94129.91;;;10.83;82.12
71956;BME280;59829;50.562;6.258;2024-03-02T13:48:34;94129.59;;;10.86;82.38
71956;BME280;59829;50.562;6.258;2024-03-02T13:58:35;94122.19;;;10.91;82.49
71956;BME280;59829;50.562;6.258;2024-03-02T14:08:35;94111.78;;;11.01;82.62
71956;BME280;59829;50.562;6.258;2024-03-02T14:18:36;94110.31;;;11.06;82.17
71956;BME280;59829;50.562;6.258;2024-03-02T14:28:36;94096.19;;;11.10;82.04
71956;BME280;59829;50.562;6.258;2024-03-02T14:38:37;94091.53;;;11.14;81.95
71956;BME280;59829;50.562;6.258;2024-03-02T14:48:38;94094.72;;;11.16;81.70
71956;BME280;59829;50.562;6.258;2024-03-02T14:58:39;94081.41;;;11.21;81.78
71956;BME280;59829;50.562;6.258;2024-03-02T15:08:39;94072.06;;;11.28;81.73
71956;BME280;59829;50.562;6.258;2024-03-02T15:18:41;94079.75;;;11.28;81.48
71956;BME280;59829;50.562;6.258;2024-03-02T15:28:41;94077.72;;;11.23;81.16
71956;BME280;59829;50.562;6.258;2024-03-02T15:38:42;94069.56;;;11.20;81.07
71956;BME280;59829;50.562;6.258;2024-03-02T15:48:43;94075.19;;;11.15;81.13
71956;BME280;59829;50.562;6.258;2024-03-02T15:58:44;94071.22;;;11.12;80.94
71956;BME280;59829;50.562;6.258;2024-03-02T16:08:46;94076.66;;;11.09;80.88
71956;BME280;59829;50.562;6.258;2024-03-02T16:18:46;94070.91;;;11.07;81.03
71956;BME280;59829;50.562;6.258;2024-03-02T16:28:46;94072.84;;;11.05;81.08
71956;BME280;59829;50.562;6.258;2024-03-02T16:38:47;94057.47;;;11.05;81.01
71956;BME280;59829;50.562;6.258;2024-03-02T16:48:47;94071.22;;;11.04;81.08
71956;BME280;59829;50.562;6.258;2024-03-02T16:58:47;94084.03;;;11.04;81.05
71956;BME280;59829;50.562;6.258;2024-03-02T17:08:48;94090.94;;;11.04;81.20
71956;BME280;59829;50.562;6.258;2024-03-02T17:18:48;94087.56;;;11.03;81.07
71956;BME280;59829;50.562;6.258;2024-03-02T17:28:48;94096.84;;;11.04;81.21
71956;BME280;59829;50.562;6.258;2024-03-02T17:38:49;94111.44;;;11.04;81.24
71956;BME280;59829;50.562;6.258;2024-03-02T17:48:49;94118.94;;;11.05;81.40
71956;BME280;59829;50.562;6.258;2024-03-02T17:58:50;94096.84;;;11.04;81.32
71956;BME280;59829;50.562;6.258;2024-03-02T18:08:50;94092.69;;;11.03;81.54
71956;BME280;59829;50.562;6.258;2024-03-02T18:18:50;94090.13;;;11.03;81.39
71956;BME280;59829;50.562;6.258;2024-03-02T18:28:51;94090.13;;;11.03;81.47
71956;BME280;59829;50.562;6.258;2024-03-02T18:38:51;94086.78;;;11.03;81.55
71956;BME280;59829;50.562;6.258;2024-03-02T18:48:51;94090.13;;;11.03;81.76
71956;BME280;59829;50.562;6.258;2024-03-02T18:58:52;94085.00;;;11.03;81.72
71956;BME280;59829;50.562;6.258;2024-03-02T19:08:52;94080.84;;;11.02;81.86
71956;BME280;59829;50.562;6.258;2024-03-02T19:18:52;94089.50;;;11.01;81.86
71956;BME280;59829;50.562;6.258;2024-03-02T19:28:53;94081.03;;;11.01;82.07
71956;BME280;59829;50.562;6.258;2024-03-02T19:38:53;94080.22;;;11.00;82.15
71956;BME280;59829;50.562;6.258;2024-03-02T19:48:53;94081.03;;;11.01;82.11
71956;BME280;59829;50.562;6.258;2024-03-02T19:58:54;94082.78;;;11.00;82.24
71956;BME280;59829;50.562;6.258;2024-03-02T20:08:54;94082.78;;;11.00;82.35
71956;BME280;59829;50.562;6.258;2024-03-02T20:18:54;94080.22;;;11.00;82.34
71956;BME280;59829;50.562;6.258;2024-03-02T20:28:55;94079.44;;;11.00;82.40
71956;BME280;59829;50.562;6.258;2024-03-02T20:38:57;94075.09;;;11.00;82.67
71956;BME280;59829;50.562;6.258;2024-03-02T20:48:57;94073.50;;;10.99;82.60
71956;BME280;59829;50.562;6.258;2024-03-02T20:58:58;94082.97;;;10.99;82.69
71956;BME280;59829;50.562;6.258;2024-03-02T21:08:58;94093.22;;;10.99;82.77
71956;BME280;59829;50.562;6.258;2024-03-02T21:18:59;94092.41;;;10.98;82.95
71956;BME280;59829;50.562;6.258;2024-03-02T21:28:59;94092.41;;;10.98;82.94
71956;BME280;59829;50.562;6.258;2024-03-02T21:38:59;94096.75;;;10.98;83.09
71956;BME280;59829;50.562;6.258;2024-03-02T21:48:59;94082.16;;;10.98;83.13
71956;BME280;59829;50.562;6.258;2024-03-02T21:59:00;94083.13;;;10.97;83.17
71956;BME280;59829;50.562;6.258;2024-03-02T22:09:01;94068.56;;;10.98;83.29
71956;BME280;59829;50.562;6.258;2024-03-02T22:19:01;94049.81;;;10.97;83.50
71956;BME280;59829;50.562;6.258;2024-03-02T22:29:01;94041.16;;;10.98;83.50
71956;BME280;59829;50.562;6.258;2024-03-02T22:39:02;94051.41;;;10.98;83.63
71956;BME280;59829;50.562;6.258;2024-03-02T22:49:03;94046.28;;;10.98;83.58
71956;BME280;59829;50.562;6.258;2024-03-02T22:59:03;94043.72;;;10.98;83.74
71956;BME280;59829;50.562;6.258;2024-03-02T23:09:04;94037.97;;;10.96;83.88
71956;BME280;59829;50.562;6.258;2024-03-02T23:19:05;94043.09;;;10.96;83.86
71956;BME280;59829;50.562;6.258;2024-03-02T23:29:05;94037.19;;;10.96;83.89
71956;BME280;59829;50.562;6.258;2024-03-02T23:39:05;94026.13;;;10.95;83.78
71956;BME280;59829;50.562;6.258;2024-03-02T23:49:06;94021.00;;;10.95;83.82
71956;BME280;59829;50.562;6.258;2024-03-02T23:59:07;94036.38;;;10.95;83.79
